Time;durP1;ratioP1;P1;durP2;ratioP2;P2;SDS_P1;SDS_P2;PMS_P1;PMS_P2;Temp;Humidity;BMP_temperature;BMP_pressure;BME280_temperature;BME280_humidity;BME280_pressure;Samples;Min_cycle;Max_cycle;Signal;HPM_P1;HPM_P2
2023/11/15 00:01:20;;;;;;;;;;;10.10;73.70;;;;;;4980484;28;86757;-59
2023/11/15 00:03:46;;;;;;;;;;;10.10;73.60;;;;;;4976894;28;86889;-59
2023/11/15 00:06:12;;;;;;;;;;;10.10;73.60;;;;;;4980224;28;87084;-59
2023/11/15 00:08:37;;;;;;;;;;;10.10;73.50;;;;;;4976889;28;89481;-58
2023/11/15 00:11:03;;;;;;;;;;;10.00;73.60;;;;;;4976801;28;87120;-58
2023/11/15 00:13:29;;;;;;;;;;;10.00;73.60;;;;;;4983549;28;88305;-58
2023/11/15 00:15:55;;;;;;;;;;;10.10;73.80;;;;;;4980147;28;87008;-59
2023/11/15 00:18:21;;;;;;;;;;;10.10;73.70;;;;;;4977902;28;86885;-59
2023/11/15 00:20:46;;;;;;;;;;;10.00;73.60;;;;;;4972443;28;87497;-58
2023/11/15 00:23:12;;;;;;;;;;;10.00;73.60;;;;;;4985271;28;86988;-58
2023/11/15 00:25:37;;;;;;;;;;;10.00;73.70;;;;;;4982281;28;88235;-58
2023/11/15 00:28:03;;;;;;;;;;;10.00;73.60;;;;;;4978766;28;88071;-59
2023/11/15 00:30:29;;;;;;;;;;;10.00;73.70;;;;;;4980741;28;86978;-59
2023/11/15 00:32:55;;;;;;;;;;;10.00;73.70;;;;;;4980184;28;87925;-58
2023/11/15 00:35:21;;;;;;;;;;;10.00;73.70;;;;;;4984534;28;87403;-59
2023/11/15 00:37:47;;;;;;;;;;;10.00;73.70;;;;;;4983048;28;86965;-59
2023/11/15 00:40:14;;;;;;;;;;;10.00;73.70;;;;;;4984466;28;88636;-59
2023/11/15 00:42:41;;;;;;;;;;;10.00;73.70;;;;;;4978001;28;87055;-59
2023/11/15 00:45:08;;;;;;;;;;;10.00;73.60;;;;;;4980175;28;87064;-59
2023/11/15 00:47:34;;;;;;;;;;;10.00;73.60;;;;;;4981536;28;87465;-59
2023/11/15 00:50:00;;;;;;;;;;;10.00;73.60;;;;;;4986618;28;87156;-59
2023/11/15 00:52:25;;;;;;;;;;;10.00;73.70;;;;;;4980701;28;87014;-59
2023/11/15 00:54:51;;;;;;;;;;;10.00;73.60;;;;;;4987252;28;88375;-59
2023/11/15 00:57:16;;;;;;;;;;;10.00;73.50;;;;;;4978747;28;88025;-59
2023/11/15 00:59:47;;;;;;;;;;;10.00;73.50;;;;;;4979829;28;88430;-58
2023/11/15 01:02:18;;;;;;;;;;;10.00;73.40;;;;;;4982029;28;87921;-59
2023/11/15 01:04:43;;;;;;;;;;;10.00;73.40;;;;;;4981754;28;87042;-59
2023/11/15 01:07:09;;;;;;;;;;;10.00;73.50;;;;;;4979620;28;87532;-60
2023/11/15 01:09:36;;;;;;;;;;;9.90;73.50;;;;;;4979495;28;87187;-59
2023/11/15 01:12:03;;;;;;;;;;;10.00;73.40;;;;;;4983732;28;88000;-58
2023/11/15 01:14:29;;;;;;;;;;;9.90;73.40;;;;;;4983711;28;87689;-58
2023/11/15 01:16:55;;;;;;;;;;;9.90;73.40;;;;;;4983109;28;87865;-59
2023/11/15 01:19:20;;;;;;;;;;;9.90;73.40;;;;;;4979625;28;87581;-59
2023/11/15 01:21:46;;;;;;;;;;;9.90;73.30;;;;;;4979489;28;87969;-59
2023/11/15 01:24:12;;;;;;;;;;;9.90;73.30;;;;;;4984498;28;88629;-59
2023/11/15 01:26:38;;;;;;;;;;;9.90;73.30;;;;;;4979785;28;88497;-59
2023/11/15 01:29:03;;;;;;;;;;;9.90;73.30;;;;;;4979970;28;87133;-59
2023/11/15 01:31:29;;;;;;;;;;;9.90;73.30;;;;;;4980097;28;88076;-59
2023/11/15 01:33:54;;;;;;;;;;;9.90;73.40;;;;;;4980270;28;87677;-57
2023/11/15 01:36:20;;;;;;;;;;;9.90;73.40;;;;;;4977629;28;86929;-58
2023/11/15 01:38:45;;;;;;;;;;;9.90;73.40;;;;;;4984852;28;86964;-59
2023/11/15 01:41:11;;;;;;;;;;;9.90;73.40;;;;;;4983334;28;87460;-59
2023/11/15 01:43:37;;;;;;;;;;;9.80;73.40;;;;;;4978086;28;87894;-59
2023/11/15 01:46:03;;;;;;;;;;;9.90;73.50;;;;;;4985000;28;88693;-59
2023/11/15 01:48:29;;;;;;;;;;;9.80;73.50;;;;;;4981611;28;87086;-59
2023/11/15 01:50:55;;;;;;;;;;;9.80;73.40;;;;;;4978291;28;86889;-58
2023/11/15 01:53:20;;;;;;;;;;;9.80;73.60;;;;;;4979688;28;87422;-59
2023/11/15 01:55:47;;;;;;;;;;;9.80;73.60;;;;;;4981326;28;87177;-58
2023/11/15 01:58:14;;;;;;;;;;;9.80;73.60;;;;;;4982462;28;88638;-59
2023/11/15 02:00:39;;;;;;;;;;;9.90;73.50;;;;;;4984434;28;88575;-59
2023/11/15 02:03:05;;;;;;;;;;;9.80;73.50;;;;;;4977690;28;87208;-58
2023/11/15 02:05:30;;;;;;;;;;;9.80;73.50;;;;;;4978823;28;87507;-58
2023/11/15 02:07:56;;;;;;;;;;;9.80;73.50;;;;;;4981320;28;87030;-58
2023/11/15 02:10:22;;;;;;;;;;;9.80;73.50;;;;;;4982383;28;87995;-59
2023/11/15 02:12:47;;;;;;;;;;;9.80;74.10;;;;;;4985392;28;88398;-59
2023/11/15 02:15:16;;;;;;;;;;;9.80;73.60;;;;;;4982590;28;88104;-59
2023/11/15 02:17:42;;;;;;;;;;;9.80;73.50;;;;;;4976131;28;87026;-58
2023/11/15 02:20:08;;;;;;;;;;;9.80;73.60;;;;;;4979235;28;88308;-59
2023/11/15 02:22:34;;;;;;;;;;;9.80;73.60;;;;;;4980152;28;89494;-59
2023/11/15 02:24:59;;;;;;;;;;;9.80;73.70;;;;;;4978617;28;87482;-59
2023/11/15 02:27:25;;;;;;;;;;;9.80;73.70;;;;;;4980723;28;86422;-58
2023/11/15 02:29:51;;;;;;;;;;;9.80;73.70;;;;;;4980394;28;87046;-58
2023/11/15 02:32:16;;;;;;;;;;;9.70;73.70;;;;;;4977760;28;87366;-58
2023/11/15 02:34:42;;;;;;;;;;;9.80;73.80;;;;;;4979323;28;88010;-57
2023/11/15 02:37:09;;;;;;;;;;;9.80;73.60;;;;;;4981784;28;87611;-58
2023/11/15 02:39:34;;;;;;;;;;;9.70;73.60;;;;;;4978183;28;88517;-58
2023/11/15 02:42:00;;;;;;;;;;;9.70;73.70;;;;;;4977356;28;87625;-58
2023/11/15 02:44:26;;;;;;;;;;;9.80;73.60;;;;;;4984028;28;87828;-58
2023/11/15 02:46:51;;;;;;;;;;;9.80;73.60;;;;;;4976881;28;87018;-59
2023/11/15 02:49:17;;;;;;;;;;;9.80;73.60;;;;;;4980966;28;87734;-59
2023/11/15 02:51:42;;;;;;;;;;;9.80;73.60;;;;;;4981672;28;86781;-59
2023/11/15 02:54:08;;;;;;;;;;;9.70;73.60;;;;;;4981674;28;88026;-59
2023/11/15 02:56:33;;;;;;;;;;;9.70;73.70;;;;;;4980657;28;86996;-58
2023/11/15 02:58:59;;;;;;;;;;;9.70;73.70;;;;;;4976788;28;88506;-59
2023/11/15 03:01:25;;;;;;;;;;;9.70;73.60;;;;;;4985290;28;87063;-59
2023/11/15 03:03:50;;;;;;;;;;;9.80;73.70;;;;;;4978337;28;86872;-59
2023/11/15 03:06:16;;;;;;;;;;;9.80;73.60;;;;;;4977536;28;86992;-59
2023/11/15 03:08:41;;;;;;;;;;;9.80;73.60;;;;;;4979182;28;87011;-59
2023/11/15 03:11:07;;;;;;;;;;;9.80;73.60;;;;;;4976965;28;87495;-58
2023/11/15 03:13:33;;;;;;;;;;;9.80;73.60;;;;;;4979304;28;87093;-58
2023/11/15 03:15:58;;;;;;;;;;;9.70;73.70;;;;;;4980681;28;88001;-58
2023/11/15 03:18:24;;;;;;;;;;;9.70;73.60;;;;;;4978262;28;87411;-58
2023/11/15 03:20:50;;;;;;;;;;;9.70;73.70;;;;;;4980555;28;87109;-59
2023/11/15 03:23:16;;;;;;;;;;;9.70;73.60;;;;;;4977374;28;87927;-59
2023/11/15 03:25:42;;;;;;;;;;;9.80;73.60;;;;;;4985290;28;88503;-59
2023/11/15 03:28:08;;;;;;;;;;;9.70;73.70;;;;;;4975247;28;87705;-57
2023/11/15 03:30:34;;;;;;;;;;;9.80;73.60;;;;;;4977509;28;88435;-59
2023/11/15 03:32:59;;;;;;;;;;;9.80;73.70;;;;;;4976813;28;87199;-59
2023/11/15 03:35:25;;;;;;;;;;;9.70;73.70;;;;;;4977473;28;87880;-58
2023/11/15 03:37:52;;;;;;;;;;;9.70;73.70;;;;;;4978167;28;87451;-60
2023/11/15 03:40:19;;;;;;;;;;;9.70;73.70;;;;;;4983324;28;86368;-59
2023/11/15 03:42:48;;;;;;;;;;;9.70;73.70;;;;;;4977524;28;87089;-60
2023/11/15 03:45:14;;;;;;;;;;;9.70;73.60;;;;;;4974146;28;88446;-59
2023/11/15 03:47:40;;;;;;;;;;;9.70;73.60;;;;;;4977459;28;87940;-59
2023/11/15 03:50:06;;;;;;;;;;;9.70;73.70;;;;;;4978758;28;87434;-59
2023/11/15 03:52:32;;;;;;;;;;;9.70;73.70;;;;;;4978297;28;86989;-59
2023/11/15 03:54:58;;;;;;;;;;;9.70;73.70;;;;;;4976340;28;87856;-60
2023/11/15 03:57:24;;;;;;;;;;;9.70;73.70;;;;;;4979230;28;88066;-59
2023/11/15 03:59:52;;;;;;;;;;;9.70;73.70;;;;;;4974162;28;86989;-59
2023/11/15 04:02:17;;;;;;;;;;;9.70;73.70;;;;;;4977005;28;88016;-60
2023/11/15 04:04:43;;;;;;;;;;;9.70;73.90;;;;;;4982335;28;86876;-60
2023/11/15 04:07:08;;;;;;;;;;;9.70;73.90;;;;;;4979186;28;87446;-59
2023/11/15 04:09:34;;;;;;;;;;;9.70;73.80;;;;;;4984232;28;87062;-58
2023/11/15 04:12:00;;;;;;;;;;;9.70;73.80;;;;;;4982701;28;88420;-59
2023/11/15 04:14:27;;;;;;;;;;;9.70;73.90;;;;;;4980595;28;87787;-60
2023/11/15 04:16:52;;;;;;;;;;;9.70;73.90;;;;;;4983000;28;87363;-59
2023/11/15 04:19:21;;;;;;;;;;;9.70;74.00;;;;;;4985358;28;87267;-59
2023/11/15 04:21:47;;;;;;;;;;;9.70;73.90;;;;;;4980417;28;87774;-59
2023/11/15 04:24:12;;;;;;;;;;;9.70;73.90;;;;;;4981159;28;86911;-60
2023/11/15 04:26:38;;;;;;;;;;;9.70;73.90;;;;;;4981309;28;87128;-59
2023/11/15 04:29:03;;;;;;;;;;;9.70;74.00;;;;;;4980527;28;86203;-59
2023/11/15 04:31:29;;;;;;;;;;;9.70;74.00;;;;;;4989875;28;88340;-58
2023/11/15 04:33:55;;;;;;;;;;;9.70;74.00;;;;;;4981418;28;87076;-59
2023/11/15 04:36:21;;;;;;;;;;;9.70;74.20;;;;;;4977982;28;88249;-59
2023/11/15 04:38:47;;;;;;;;;;;9.70;74.30;;;;;;4982382;28;87081;-59
2023/11/15 04:41:13;;;;;;;;;;;9.70;74.40;;;;;;4983862;28;87972;-59
2023/11/15 04:43:39;;;;;;;;;;;9.70;74.40;;;;;;4985534;28;88639;-59
2023/11/15 04:46:04;;;;;;;;;;;9.70;74.60;;;;;;4978792;28;86949;-59
2023/11/15 04:48:30;;;;;;;;;;;9.70;74.70;;;;;;4981982;28;86993;-60
2023/11/15 04:50:57;;;;;;;;;;;9.70;74.60;;;;;;4980393;28;87422;-59
2023/11/15 04:53:24;;;;;;;;;;;9.70;74.80;;;;;;4985279;28;86258;-59
2023/11/15 04:55:50;;;;;;;;;;;9.70;74.60;;;;;;4980456;28;88490;-58
2023/11/15 04:58:15;;;;;;;;;;;9.70;74.90;;;;;;4977209;28;87053;-59
2023/11/15 05:00:41;;;;;;;;;;;9.70;74.50;;;;;;4983441;28;87861;-59
2023/11/15 05:03:07;;;;;;;;;;;9.70;74.50;;;;;;4984507;28;87522;-58
2023/11/15 05:05:33;;;;;;;;;;;9.70;74.70;;;;;;4978247;28;87223;-60
2023/11/15 05:07:59;;;;;;;;;;;9.70;74.70;;;;;;4980711;28;88000;-60
2023/11/15 05:10:25;;;;;;;;;;;9.70;74.60;;;;;;4984037;28;87447;-59
2023/11/15 05:12:51;;;;;;;;;;;9.70;74.60;;;;;;4983151;28;86881;-60
2023/11/15 05:15:17;;;;;;;;;;;9.70;74.70;;;;;;4983515;28;87705;-59
2023/11/15 05:17:43;;;;;;;;;;;9.70;74.80;;;;;;4978373;28;86468;-59
2023/11/15 05:20:10;;;;;;;;;;;9.70;74.80;;;;;;4980487;28;87390;-59
2023/11/15 05:22:36;;;;;;;;;;;9.70;74.60;;;;;;4977689;28;88554;-58
2023/11/15 05:25:03;;;;;;;;;;;9.70;74.70;;;;;;4978216;28;88513;-59
2023/11/15 05:27:29;;;;;;;;;;;9.70;74.60;;;;;;4977398;28;88754;-60
2023/11/15 05:29:54;;;;;;;;;;;9.70;74.60;;;;;;4977628;28;88551;-58
2023/11/15 05:32:20;;;;;;;;;;;9.70;74.50;;;;;;4983155;28;86978;-59
2023/11/15 05:34:47;;;;;;;;;;;9.70;74.60;;;;;;4981357;28;86953;-59
2023/11/15 05:37:12;;;;;;;;;;;9.70;74.50;;;;;;4980273;28;87270;-59
2023/11/15 05:39:38;;;;;;;;;;;9.70;74.70;;;;;;4982845;28;86948;-59
2023/11/15 05:42:07;;;;;;;;;;;9.70;74.80;;;;;;4984419;28;86734;-59
2023/11/15 05:44:33;;;;;;;;;;;9.70;74.40;;;;;;4977925;28;87214;-60
2023/11/15 05:46:58;;;;;;;;;;;9.70;74.80;;;;;;4982612;28;87055;-60
2023/11/15 05:49:24;;;;;;;;;;;9.70;74.60;;;;;;4978845;28;88532;-59
2023/11/15 05:51:49;;;;;;;;;;;9.70;74.50;;;;;;4984025;28;87019;-58
2023/11/15 05:54:16;;;;;;;;;;;9.70;74.60;;;;;;4977040;28;87252;-58
2023/11/15 05:56:48;;;;;;;;;;;9.70;74.50;;;;;;4986541;28;89872;-59
2023/11/15 05:59:14;;;;;;;;;;;9.70;74.70;;;;;;4978444;28;87895;-58
2023/11/15 06:01:43;;;;;;;;;;;9.70;74.50;;;;;;4983310;28;88580;-58
2023/11/15 06:04:08;;;;;;;;;;;9.70;74.60;;;;;;4974981;28;87047;-59
2023/11/15 06:06:34;;;;;;;;;;;9.80;74.50;;;;;;4979155;28;87828;-58
2023/11/15 06:09:00;;;;;;;;;;;9.70;74.40;;;;;;4979852;28;87634;-59
2023/11/15 06:11:25;;;;;;;;;;;9.70;74.40;;;;;;4981216;28;87432;-58
2023/11/15 06:13:51;;;;;;;;;;;9.80;74.40;;;;;;4976762;28;89194;-58
2023/11/15 06:16:17;;;;;;;;;;;9.80;74.50;;;;;;4979189;28;88718;-58
2023/11/15 06:18:43;;;;;;;;;;;9.80;74.40;;;;;;4979553;28;87083;-59
2023/11/15 06:21:09;;;;;;;;;;;9.80;74.50;;;;;;4976559;28;87558;-58
2023/11/15 06:23:35;;;;;;;;;;;9.80;74.50;;;;;;4979354;28;87233;-58
2023/11/15 06:26:00;;;;;;;;;;;9.80;74.30;;;;;;4979621;28;86921;-58
2023/11/15 06:28:26;;;;;;;;;;;9.80;74.60;;;;;;4977265;28;87660;-58
2023/11/15 06:30:51;;;;;;;;;;;9.80;74.60;;;;;;4976679;28;86296;-58
2023/11/15 06:33:17;;;;;;;;;;;9.80;74.60;;;;;;4976097;28;87364;-58
2023/11/15 06:35:44;;;;;;;;;;;9.80;74.80;;;;;;4979747;28;87059;-57
2023/11/15 06:38:09;;;;;;;;;;;9.80;74.70;;;;;;4974539;28;87938;-58
2023/11/15 06:40:35;;;;;;;;;;;9.80;74.80;;;;;;4978190;28;88812;-58
2023/11/15 06:43:01;;;;;;;;;;;9.80;74.90;;;;;;4979523;28;87033;-58
2023/11/15 06:45:27;;;;;;;;;;;9.80;74.80;;;;;;4976539;28;87645;-58
2023/11/15 06:47:53;;;;;;;;;;;9.80;74.80;;;;;;4978014;28;87632;-58
2023/11/15 06:50:19;;;;;;;;;;;9.80;74.90;;;;;;4978495;28;87967;-56
2023/11/15 06:52:45;;;;;;;;;;;9.80;75.00;;;;;;4978980;28;87398;-58
2023/11/15 06:55:11;;;;;;;;;;;9.80;74.90;;;;;;4980149;28;86898;-58
2023/11/15 06:57:41;;;;;;;;;;;9.90;74.90;;;;;;4978135;28;87004;-59
2023/11/15 07:00:11;;;;;;;;;;;9.80;75.00;;;;;;4978677;28;87953;-58
2023/11/15 07:02:36;;;;;;;;;;;9.90;74.80;;;;;;4978043;28;89427;-58
2023/11/15 07:05:03;;;;;;;;;;;9.90;75.20;;;;;;4981838;28;87030;-58
2023/11/15 07:07:30;;;;;;;;;;;9.80;75.10;;;;;;4978311;28;88513;-57
2023/11/15 07:09:55;;;;;;;;;;;9.90;75.20;;;;;;4977801;28;87668;-58
2023/11/15 07:12:21;;;;;;;;;;;9.90;75.10;;;;;;4980396;28;87949;-58
2023/11/15 07:14:48;;;;;;;;;;;9.90;75.10;;;;;;4978391;28;88252;-58
2023/11/15 07:17:14;;;;;;;;;;;9.90;75.10;;;;;;4977203;28;87098;-58
2023/11/15 07:19:40;;;;;;;;;;;10.00;75.30;;;;;;4979123;28;87851;-58
2023/11/15 07:22:05;;;;;;;;;;;9.90;75.10;;;;;;4984634;28;88371;-58
2023/11/15 07:24:38;;;;;;;;;;;10.00;75.10;;;;;;4975910;28;86953;-57
2023/11/15 07:27:04;;;;;;;;;;;10.00;75.10;;;;;;4974018;28;89456;-59
2023/11/15 07:29:33;;;;;;;;;;;10.00;75.30;;;;;;4976405;28;87255;-58
2023/11/15 07:32:01;;;;;;;;;;;9.90;75.40;;;;;;4979307;28;87955;-58
2023/11/15 07:34:28;;;;;;;;;;;9.90;75.50;;;;;;4980283;28;88569;-58
2023/11/15 07:36:55;;;;;;;;;;;10.00;75.30;;;;;;4975034;28;87111;-58
2023/11/15 07:39:21;;;;;;;;;;;10.00;75.20;;;;;;4981431;28;87050;-58
2023/11/15 07:41:47;;;;;;;;;;;10.00;75.60;;;;;;4978457;28;88580;-58
2023/11/15 07:44:15;;;;;;;;;;;10.00;75.50;;;;;;4985008;28;86306;-58
2023/11/15 07:46:42;;;;;;;;;;;10.00;75.50;;;;;;4975749;28;88882;-58
2023/11/15 07:49:08;;;;;;;;;;;10.00;75.70;;;;;;4979256;28;87031;-56
2023/11/15 07:51:33;;;;;;;;;;;10.00;75.90;;;;;;4977240;28;87948;-58
2023/11/15 07:53:59;;;;;;;;;;;10.00;75.90;;;;;;4980640;28;88068;-58
2023/11/15 07:56:26;;;;;;;;;;;10.00;75.90;;;;;;4975609;28;87033;-58
2023/11/15 07:58:54;;;;;;;;;;;10.00;75.90;;;;;;4975263;28;87872;-58
2023/11/15 08:01:22;;;;;;;;;;;10.10;75.90;;;;;;4978235;28;88449;-58
2023/11/15 08:03:49;;;;;;;;;;;10.00;76.10;;;;;;4975213;28;86895;-59
2023/11/15 08:06:15;;;;;;;;;;;10.00;75.80;;;;;;4981212;28;87197;-59
2023/11/15 08:08:41;;;;;;;;;;;10.00;76.00;;;;;;4978878;28;86292;-59
2023/11/15 08:11:06;;;;;;;;;;;10.00;76.20;;;;;;4976724;28;86987;-58
2023/11/15 08:13:32;;;;;;;;;;;10.10;76.20;;;;;;4977141;28;88414;-58
2023/11/15 08:15:58;;;;;;;;;;;10.10;76.30;;;;;;4980042;28;88829;-55
2023/11/15 08:18:23;;;;;;;;;;;10.10;76.30;;;;;;4977670;28;89023;-58
2023/11/15 08:20:50;;;;;;;;;;;10.10;76.10;;;;;;4977439;28;87515;-58
2023/11/15 08:23:15;;;;;;;;;;;10.10;76.50;;;;;;4975132;28;86992;-58
2023/11/15 08:25:45;;;;;;;;;;;10.10;76.20;;;;;;4972882;28;87891;-58
2023/11/15 08:28:10;;;;;;;;;;;10.10;76.10;;;;;;4980592;28;87370;-58
2023/11/15 08:30:36;;;;;;;;;;;10.10;76.30;;;;;;4979461;28;86954;-59
2023/11/15 08:33:01;;;;;;;;;;;10.20;76.30;;;;;;4977988;28;86816;-56
2023/11/15 08:35:27;;;;;;;;;;;10.10;76.40;;;;;;4978905;28;88718;-58
2023/11/15 08:38:12;;;;;;;;;;;10.20;76.40;;;;;;4976018;28;87015;-58
2023/11/15 08:40:38;;;;;;;;;;;10.20;76.20;;;;;;4979615;28;89390;-58
2023/11/15 08:43:03;;;;;;;;;;;10.20;76.30;;;;;;4973790;28;88394;-57
2023/11/15 08:45:29;;;;;;;;;;;10.20;76.10;;;;;;4976407;28;87764;-58
2023/11/15 08:47:57;;;;;;;;;;;10.20;76.20;;;;;;4976500;28;88606;-58
2023/11/15 08:50:25;;;;;;;;;;;10.20;76.30;;;;;;4986802;28;87061;-59
2023/11/15 08:52:51;;;;;;;;;;;10.20;76.50;;;;;;4980183;28;87480;-59
2023/11/15 08:55:17;;;;;;;;;;;10.20;76.30;;;;;;4974400;28;86973;-58
2023/11/15 08:57:43;;;;;;;;;;;10.20;76.20;;;;;;4981178;28;87023;-59
2023/11/15 09:00:12;;;;;;;;;;;10.20;76.40;;;;;;4978085;28;86866;-59
2023/11/15 09:02:46;;;;;;;;;;;10.30;76.30;;;;;;4977156;28;87078;-58
2023/11/15 09:05:13;;;;;;;;;;;10.30;76.30;;;;;;4983609;28;88100;-59
2023/11/15 09:07:39;;;;;;;;;;;10.30;76.30;;;;;;4978507;28;88498;-58
2023/11/15 09:10:08;;;;;;;;;;;10.30;76.10;;;;;;4981086;28;87365;-57
2023/11/15 09:12:37;;;;;;;;;;;10.30;76.20;;;;;;4976446;28;88491;-57
2023/11/15 09:15:11;;;;;;;;;;;10.30;76.30;;;;;;4980851;28;87096;-58
2023/11/15 09:17:45;;;;;;;;;;;10.30;76.70;;;;;;4977737;28;87977;-58
2023/11/15 09:20:12;;;;;;;;;;;10.30;76.40;;;;;;4982017;28;88603;-58
2023/11/15 09:22:38;;;;;;;;;;;10.30;76.40;;;;;;4981941;28;87073;-59
2023/11/15 09:25:06;;;;;;;;;;;10.30;76.20;;;;;;4981568;28;87133;-58
2023/11/15 09:27:32;;;;;;;;;;;10.30;76.40;;;;;;4982034;28;87302;-57
2023/11/15 09:29:58;;;;;;;;;;;10.30;76.40;;;;;;4972241;28;88026;-56
2023/11/15 09:32:25;;;;;;;;;;;10.30;76.10;;;;;;4983507;28;89038;-58
2023/11/15 09:34:52;;;;;;;;;;;10.30;76.40;;;;;;4978780;28;87003;-58
2023/11/15 09:37:17;;;;;;;;;;;10.30;76.50;;;;;;4979219;28;87893;-58
2023/11/15 09:39:45;;;;;;;;;;;10.30;76.60;;;;;;4984948;28;88744;-58
2023/11/15 09:42:10;;;;;;;;;;;10.40;76.70;;;;;;4977936;28;86988;-59
2023/11/15 09:44:37;;;;;;;;;;;10.30;76.60;;;;;;4980552;28;88007;-59
2023/11/15 09:47:05;;;;;;;;;;;10.40;76.80;;;;;;4983220;28;87759;-58
2023/11/15 09:49:32;;;;;;;;;;;10.40;76.40;;;;;;4980610;28;86957;-59
2023/11/15 09:51:59;;;;;;;;;;;10.40;76.70;;;;;;4977260;28;87158;-59
2023/11/15 09:54:25;;;;;;;;;;;10.40;76.60;;;;;;4979635;28;89381;-59
2023/11/15 09:56:51;;;;;;;;;;;10.40;76.70;;;;;;4981589;28;87814;-59
2023/11/15 09:59:18;;;;;;;;;;;10.30;76.90;;;;;;4984242;28;88447;-59
2023/11/15 10:01:50;;;;;;;;;;;10.40;77.40;;;;;;4982610;28;87144;-58
2023/11/15 10:04:25;;;;;;;;;;;10.30;77.40;;;;;;4977222;28;87193;-59
2023/11/15 10:07:01;;;;;;;;;;;10.30;77.20;;;;;;4977900;28;88033;-59
2023/11/15 10:09:36;;;;;;;;;;;10.40;77.40;;;;;;4980268;28;87045;-59
2023/11/15 10:12:03;;;;;;;;;;;10.40;77.30;;;;;;4978516;28;87946;-58
2023/11/15 10:14:29;;;;;;;;;;;10.40;77.50;;;;;;4978432;28;87319;-58
2023/11/15 10:16:55;;;;;;;;;;;10.40;77.40;;;;;;4984654;28;87120;-59
2023/11/15 10:19:26;;;;;;;;;;;10.40;77.60;;;;;;4980369;28;88921;-59
2023/11/15 10:22:14;;;;;;;;;;;10.40;77.60;;;;;;4977386;28;87018;-58
2023/11/15 10:24:40;;;;;;;;;;;10.40;77.60;;;;;;4980219;28;87957;-59
2023/11/15 10:27:08;;;;;;;;;;;10.40;77.90;;;;;;4982527;28;88538;-58
2023/11/15 10:29:39;;;;;;;;;;;10.40;78.00;;;;;;4980749;28;86974;-59
2023/11/15 10:32:04;;;;;;;;;;;10.40;77.70;;;;;;4975169;28;87615;-59
2023/11/15 10:34:32;;;;;;;;;;;10.40;77.70;;;;;;4978965;28;88511;-59
2023/11/15 10:37:05;;;;;;;;;;;10.40;77.50;;;;;;4982307;28;86316;-59
2023/11/15 10:39:32;;;;;;;;;;;10.40;77.80;;;;;;4980534;28;88117;-59
2023/11/15 10:41:58;;;;;;;;;;;10.40;77.80;;;;;;4975715;28;87547;-59
2023/11/15 10:44:24;;;;;;;;;;;10.40;77.80;;;;;;4978023;28;88440;-59
2023/11/15 10:46:50;;;;;;;;;;;10.40;78.00;;;;;;4979490;28;87451;-59
2023/11/15 10:49:18;;;;;;;;;;;10.50;77.90;;;;;;4978947;28;87434;-58
2023/11/15 10:51:44;;;;;;;;;;;10.50;77.80;;;;;;4978557;28;87910;-58
2023/11/15 10:54:11;;;;;;;;;;;10.50;77.70;;;;;;4978072;28;88621;-59
2023/11/15 10:56:37;;;;;;;;;;;10.50;78.00;;;;;;4978567;28;87185;-58
2023/11/15 10:59:04;;;;;;;;;;;10.50;77.70;;;;;;4977698;28;87983;-58
2023/11/15 11:01:31;;;;;;;;;;;10.50;77.80;;;;;;4978438;28;87920;-55
2023/11/15 11:03:58;;;;;;;;;;;10.50;77.80;;;;;;4980396;28;86948;-57
2023/11/15 11:06:26;;;;;;;;;;;10.50;77.50;;;;;;4983272;28;88474;-60
2023/11/15 11:09:10;;;;;;;;;;;10.50;77.50;;;;;;4976461;28;88144;-60
2023/11/15 11:11:52;;;;;;;;;;;10.50;77.20;;;;;;4979437;28;88980;-59
2023/11/15 11:14:20;;;;;;;;;;;10.50;77.20;;;;;;4978042;28;88506;-60
2023/11/15 11:16:47;;;;;;;;;;;10.50;77.40;;;;;;4977396;28;86986;-59
2023/11/15 11:19:22;;;;;;;;;;;10.50;77.30;;;;;;4974637;28;88306;-60
2023/11/15 11:22:03;;;;;;;;;;;10.50;77.20;;;;;;4981773;28;87287;-60
2023/11/15 11:24:31;;;;;;;;;;;10.50;77.20;;;;;;4978434;28;87849;-60
2023/11/15 11:27:07;;;;;;;;;;;10.50;77.30;;;;;;4970911;28;88085;-59
2023/11/15 11:29:55;;;;;;;;;;;10.50;77.30;;;;;;4977872;28;87147;-59
2023/11/15 11:32:28;;;;;;;;;;;10.50;77.20;;;;;;4974385;28;88083;-61
2023/11/15 11:35:00;;;;;;;;;;;10.60;77.00;;;;;;4976031;28;89411;-59
2023/11/15 11:37:47;;;;;;;;;;;10.60;77.60;;;;;;4977958;28;87426;-60
2023/11/15 11:40:16;;;;;;;;;;;10.60;77.00;;;;;;4972336;28;88181;-59
2023/11/15 11:42:43;;;;;;;;;;;10.60;77.20;;;;;;4978442;28;87866;-59
2023/11/15 11:45:09;;;;;;;;;;;10.60;77.00;;;;;;4975675;28;87090;-59
2023/11/15 11:47:38;;;;;;;;;;;10.60;77.00;;;;;;4978390;28;87664;-59
2023/11/15 11:50:06;;;;;;;;;;;10.60;77.00;;;;;;4975186;28;86977;-60
2023/11/15 11:52:32;;;;;;;;;;;10.50;77.00;;;;;;4979488;28;86268;-60
2023/11/15 11:54:58;;;;;;;;;;;10.60;76.90;;;;;;4975622;28;87656;-60
2023/11/15 11:57:24;;;;;;;;;;;10.60;76.80;;;;;;4976813;28;87691;-60
2023/11/15 12:00:00;;;;;;;;;;;10.60;76.80;;;;;;4973994;28;87879;-60
2023/11/15 12:02:32;;;;;;;;;;;10.60;76.80;;;;;;4980722;28;88098;-59
2023/11/15 12:04:58;;;;;;;;;;;10.60;76.80;;;;;;4977753;28;87050;-59
2023/11/15 12:07:25;;;;;;;;;;;10.60;76.80;;;;;;4981838;28;87875;-59
2023/11/15 12:09:51;;;;;;;;;;;10.60;76.60;;;;;;4980869;28;87291;-60
2023/11/15 12:12:18;;;;;;;;;;;10.60;76.70;;;;;;4980933;28;87101;-60
2023/11/15 12:14:52;;;;;;;;;;;10.60;76.60;;;;;;4976619;28;88612;-60
2023/11/15 12:17:18;;;;;;;;;;;10.60;76.70;;;;;;4978566;28;87866;-59
2023/11/15 12:19:43;;;;;;;;;;;10.60;76.60;;;;;;4981287;28;87605;-59
2023/11/15 12:22:09;;;;;;;;;;;10.60;76.70;;;;;;4977096;28;87642;-59
2023/11/15 12:24:37;;;;;;;;;;;10.60;76.60;;;;;;4973426;28;88102;-59
2023/11/15 12:27:03;;;;;;;;;;;10.60;76.60;;;;;;4981123;28;88840;-59
2023/11/15 12:29:30;;;;;;;;;;;10.60;76.70;;;;;;4983275;28;87617;-59
2023/11/15 12:31:57;;;;;;;;;;;10.70;76.60;;;;;;4980726;28;86974;-59
2023/11/15 12:34:24;;;;;;;;;;;10.70;76.60;;;;;;4972444;28;88729;-59
2023/11/15 12:36:50;;;;;;;;;;;10.70;76.60;;;;;;4980457;28;87349;-59
2023/11/15 12:39:16;;;;;;;;;;;10.70;76.50;;;;;;4983896;28;86982;-59
2023/11/15 12:41:46;;;;;;;;;;;10.70;76.40;;;;;;4983990;28;87669;-59
2023/11/15 12:44:12;;;;;;;;;;;10.70;76.40;;;;;;4983362;28;87166;-57
2023/11/15 12:46:38;;;;;;;;;;;10.70;76.50;;;;;;4981157;28;88005;-59
2023/11/15 12:49:11;;;;;;;;;;;10.70;76.50;;;;;;4979541;28;88314;-59
2023/11/15 12:51:43;;;;;;;;;;;10.70;76.70;;;;;;4982016;28;87513;-59
2023/11/15 12:54:08;;;;;;;;;;;10.60;76.40;;;;;;4977901;28;87571;-59
2023/11/15 12:56:34;;;;;;;;;;;10.70;76.50;;;;;;4981204;28;87101;-58
2023/11/15 12:58:59;;;;;;;;;;;10.70;76.60;;;;;;4980846;28;87078;-59
2023/11/15 13:01:27;;;;;;;;;;;10.70;76.50;;;;;;4978874;28;88514;-59
2023/11/15 13:03:56;;;;;;;;;;;10.70;76.50;;;;;;4980789;28;87157;-58
2023/11/15 13:06:22;;;;;;;;;;;10.70;76.60;;;;;;4985130;28;87067;-59
2023/11/15 13:08:52;;;;;;;;;;;10.70;76.40;;;;;;4981358;28;88472;-59
2023/11/15 13:11:18;;;;;;;;;;;10.70;76.60;;;;;;4978861;28;87086;-59
2023/11/15 13:13:47;;;;;;;;;;;10.70;76.40;;;;;;4979222;28;88019;-58
2023/11/15 13:16:13;;;;;;;;;;;10.70;76.50;;;;;;4978029;28;86993;-59
2023/11/15 13:18:39;;;;;;;;;;;10.70;76.40;;;;;;4981238;28;88118;-59
2023/11/15 13:21:06;;;;;;;;;;;10.70;76.30;;;;;;4975175;28;88190;-59
2023/11/15 13:23:35;;;;;;;;;;;10.70;76.40;;;;;;4981959;28;87007;-59
2023/11/15 13:26:02;;;;;;;;;;;10.70;76.40;;;;;;4980730;28;87015;-59
2023/11/15 13:28:29;;;;;;;;;;;10.70;76.40;;;;;;4982898;28;87293;-58
2023/11/15 13:30:54;;;;;;;;;;;10.70;76.40;;;;;;4978146;28;86710;-59
2023/11/15 13:33:20;;;;;;;;;;;10.70;76.20;;;;;;4985404;28;87697;-59
2023/11/15 13:35:46;;;;;;;;;;;10.80;76.10;;;;;;4980351;28;87070;-59
2023/11/15 13:38:12;;;;;;;;;;;10.80;76.00;;;;;;4980151;28;89829;-59
2023/11/15 13:40:41;;;;;;;;;;;10.80;76.00;;;;;;4980144;28;88547;-59
2023/11/15 13:43:07;;;;;;;;;;;10.70;75.90;;;;;;4981463;28;87068;-59
2023/11/15 13:45:32;;;;;;;;;;;10.70;76.10;;;;;;4982055;28;87925;-59
2023/11/15 13:47:58;;;;;;;;;;;10.70;76.10;;;;;;4979482;28;88932;-59
2023/11/15 13:50:24;;;;;;;;;;;10.80;75.90;;;;;;4979339;28;87444;-58
2023/11/15 13:52:50;;;;;;;;;;;10.70;75.90;;;;;;4979688;28;87006;-59
2023/11/15 13:55:16;;;;;;;;;;;10.80;75.90;;;;;;4985726;28;86777;-59
2023/11/15 13:57:42;;;;;;;;;;;10.80;75.80;;;;;;4979319;28;87298;-59
2023/11/15 14:00:13;;;;;;;;;;;10.80;75.80;;;;;;4981178;28;88283;-59
2023/11/15 14:02:39;;;;;;;;;;;10.80;75.80;;;;;;4976087;28;88009;-58
2023/11/15 14:05:12;;;;;;;;;;;10.80;75.80;;;;;;4981539;28;88740;-59
2023/11/15 14:07:39;;;;;;;;;;;10.80;75.70;;;;;;4978576;28;88668;-60
2023/11/15 14:10:07;;;;;;;;;;;10.70;75.60;;;;;;4981127;28;87092;-60
2023/11/15 14:12:33;;;;;;;;;;;10.80;75.60;;;;;;4981481;28;87068;-60
2023/11/15 14:14:59;;;;;;;;;;;10.80;75.60;;;;;;4980745;28;87534;-58
2023/11/15 14:17:25;;;;;;;;;;;10.80;75.60;;;;;;4980566;28;88129;-58
2023/11/15 14:19:51;;;;;;;;;;;10.80;75.50;;;;;;4981453;28;87775;-59
2023/11/15 14:22:18;;;;;;;;;;;10.80;75.60;;;;;;4981083;28;87056;-59